Columbia Heights, Louisiana
Current Conditions -  °F | °C
As of 4:53 PM on Friday 28 Nov 2014 (Local Time) from KMLU Reporting Station
Clear Clear  
Wind Chill: 57°   Ceiling: Unl
Heat Index: 57°   Visibility: 10mi
Dew Point: 37°   Wind: 7mph
Humidity: 47%   Direction: 180°S
Pressure: 30.2"   Gusts: NA
Location:  32.1631°N, 92.1971°W
Report Text: KMLU 282253Z 18006KT 10SM CLR 14/03 A3020 RMK AO2 SLP226 T01390028
Loading
Personal Weather Stations






























Interactive Weather Map New forecast layout! Learn more

10-Day Weather Forecast

Advertisements
Track Severe Weather on mobile